Siirt, Turkey
Current Conditions -  °F | °C
As of 6:50 PM on Sunday 25 Jan 2015 (Local Time) from LTCJ Reporting Station
Clear Clear  
Wind Chill: 43°   Ceiling: Unl
Heat Index: 43°   Visibility: 6mi
Dew Point: 32°   Wind: 3mph
Humidity: 66%   Direction: 40°NE
Pressure: 30.21"   Gusts: NA
Location:  37.94°N, 41.95°E
Report Text: LTCJ 251550Z 04003KT CAVOK 06/M00 Q1023
Loading
Personal Weather Stations






























Interactive Weather Map New forecast layout! Learn more

10-Day Weather Forecast

Advertisements
Track Severe Weather on mobile